Terminal Aerodrome Forecast
Issued by NWS

Home | Current Version | Previous Version | Text Only | Print | Product List | Glossary On
Versions: 1 2 3 4 5 6 7 8 9 10 11 12 13
000
FTUS45 KABQ 240522
TAFFMN
TAF
KFMN 240522Z 2406/2506 03006KT P6SM BKN140
     FM240800 09006KT P6SM SCT150
     FM241900 27013KT P6SM FEW110
     FM250200 07007KT P6SM SCT120=

USA.gov is the U.S. government's official web portal to all federal, state and local government web resources and services.